sensor_id;sensor_type;location;lat;lon;timestamp;temperature;humidity
32506;DHT22;18955;51.224;8.482;2023-03-16T00:00:49;3.70;71.60
32506;DHT22;18955;51.224;8.482;2023-03-16T00:03:16;3.60;71.60
32506;DHT22;18955;51.224;8.482;2023-03-16T00:05:48;3.60;71.60
32506;DHT22;18955;51.224;8.482;2023-03-16T00:08:16;3.60;71.70
32506;DHT22;18955;51.224;8.482;2023-03-16T00:10:43;3.60;71.60
32506;DHT22;18955;51.224;8.482;2023-03-16T00:13:16;3.60;71.50
32506;DHT22;18955;51.224;8.482;2023-03-16T00:18:16;3.50;71.50
32506;DHT22;18955;51.224;8.482;2023-03-16T00:20:43;3.50;71.60
32506;DHT22;18955;51.224;8.482;2023-03-16T00:23:09;3.40;71.50
32506;DHT22;18955;51.224;8.482;2023-03-16T00:25:35;3.40;71.50
32506;DHT22;18955;51.224;8.482;2023-03-16T00:28:01;3.40;71.60
32506;DHT22;18955;51.224;8.482;2023-03-16T00:30:29;3.40;71.60
32506;DHT22;18955;51.224;8.482;2023-03-16T00:32:58;3.30;71.60
32506;DHT22;18955;51.224;8.482;2023-03-16T00:35:24;3.40;71.70
32506;DHT22;18955;51.224;8.482;2023-03-16T00:37:50;3.30;71.50
32506;DHT22;18955;51.224;8.482;2023-03-16T00:40:17;3.30;71.60
32506;DHT22;18955;51.224;8.482;2023-03-16T00:42:43;3.30;71.60
32506;DHT22;18955;51.224;8.482;2023-03-16T00:45:10;3.30;71.70
32506;DHT22;18955;51.224;8.482;2023-03-16T00:47:36;3.20;71.60
32506;DHT22;18955;51.224;8.482;2023-03-16T00:50:03;3.30;71.70
32506;DHT22;18955;51.224;8.482;2023-03-16T00:52:29;3.20;71.60
32506;DHT22;18955;51.224;8.482;2023-03-16T00:54:57;3.20;71.60
32506;DHT22;18955;51.224;8.482;2023-03-16T00:57:24;3.20;71.60
32506;DHT22;18955;51.224;8.482;2023-03-16T00:59:52;3.10;71.60
32506;DHT22;18955;51.224;8.482;2023-03-16T01:02:19;3.10;71.60
32506;DHT22;18955;51.224;8.482;2023-03-16T01:04:48;3.10;71.70
32506;DHT22;18955;51.224;8.482;2023-03-16T01:07:15;3.10;71.70
32506;DHT22;18955;51.224;8.482;2023-03-16T01:09:43;3.00;71.60
32506;DHT22;18955;51.224;8.482;2023-03-16T01:12:13;3.00;71.60
32506;DHT22;18955;51.224;8.482;2023-03-16T01:14:41;3.00;71.60
32506;DHT22;18955;51.224;8.482;2023-03-16T01:17:08;3.00;71.70
32506;DHT22;18955;51.224;8.482;2023-03-16T01:19:36;3.00;71.70
32506;DHT22;18955;51.224;8.482;2023-03-16T01:22:05;2.90;71.50
32506;DHT22;18955;51.224;8.482;2023-03-16T01:24:32;2.90;71.60
32506;DHT22;18955;51.224;8.482;2023-03-16T01:27:00;2.90;71.60
32506;DHT22;18955;51.224;8.482;2023-03-16T01:29:27;2.90;71.60
32506;DHT22;18955;51.224;8.482;2023-03-16T01:31:56;2.90;71.70
32506;DHT22;18955;51.224;8.482;2023-03-16T01:34:22;2.90;71.70
32506;DHT22;18955;51.224;8.482;2023-03-16T01:36:49;2.80;71.60
32506;DHT22;18955;51.224;8.482;2023-03-16T01:39:24;2.80;71.70
32506;DHT22;18955;51.224;8.482;2023-03-16T01:41:50;2.80;71.70
32506;DHT22;18955;51.224;8.482;2023-03-16T01:44:19;2.80;71.70
32506;DHT22;18955;51.224;8.482;2023-03-16T01:46:47;2.70;71.70
32506;DHT22;18955;51.224;8.482;2023-03-16T01:49:20;2.70;71.70
32506;DHT22;18955;51.224;8.482;2023-03-16T01:54:32;2.70;71.80
32506;DHT22;18955;51.224;8.482;2023-03-16T01:57:07;2.70;71.80
32506;DHT22;18955;51.224;8.482;2023-03-16T02:02:08;2.60;71.70
32506;DHT22;18955;51.224;8.482;2023-03-16T02:04:45;2.60;71.80
32506;DHT22;18955;51.224;8.482;2023-03-16T02:07:17;2.60;71.80
32506;DHT22;18955;51.224;8.482;2023-03-16T02:09:45;2.60;71.90
32506;DHT22;18955;51.224;8.482;2023-03-16T02:12:15;2.50;72.40
32506;DHT22;18955;51.224;8.482;2023-03-16T02:14:50;2.60;72.00
32506;DHT22;18955;51.224;8.482;2023-03-16T02:17:27;2.50;71.90
32506;DHT22;18955;51.224;8.482;2023-03-16T02:20:34;2.50;71.90
32506;DHT22;18955;51.224;8.482;2023-03-16T02:23:03;2.50;72.00
32506;DHT22;18955;51.224;8.482;2023-03-16T02:26:00;2.50;72.00
32506;DHT22;18955;51.224;8.482;2023-03-16T02:28:58;2.50;72.00
32506;DHT22;18955;51.224;8.482;2023-03-16T02:31:24;2.40;71.90
32506;DHT22;18955;51.224;8.482;2023-03-16T02:33:51;2.40;72.00
32506;DHT22;18955;51.224;8.482;2023-03-16T02:36:20;2.40;72.00
32506;DHT22;18955;51.224;8.482;2023-03-16T02:38:47;2.40;72.00
32506;DHT22;18955;51.224;8.482;2023-03-16T02:41:17;2.50;72.00
32506;DHT22;18955;51.224;8.482;2023-03-16T02:43:57;2.30;71.90
32506;DHT22;18955;51.224;8.482;2023-03-16T02:46:30;2.30;71.90
32506;DHT22;18955;51.224;8.482;2023-03-16T02:49:06;2.30;71.90
32506;DHT22;18955;51.224;8.482;2023-03-16T02:51:33;2.30;71.90
32506;DHT22;18955;51.224;8.482;2023-03-16T02:53:59;2.30;72.00
32506;DHT22;18955;51.224;8.482;2023-03-16T02:56:30;2.30;72.00
32506;DHT22;18955;51.224;8.482;2023-03-16T02:58:57;2.20;71.90
32506;DHT22;18955;51.224;8.482;2023-03-16T03:01:24;2.20;72.00
32506;DHT22;18955;51.224;8.482;2023-03-16T03:03:50;2.20;72.00
32506;DHT22;18955;51.224;8.482;2023-03-16T03:06:16;2.20;72.00
32506;DHT22;18955;51.224;8.482;2023-03-16T03:08:43;2.20;72.00
32506;DHT22;18955;51.224;8.482;2023-03-16T03:11:09;2.20;72.00
32506;DHT22;18955;51.224;8.482;2023-03-16T03:13:36;2.20;72.10
32506;DHT22;18955;51.224;8.482;2023-03-16T03:16:10;2.20;72.10
32506;DHT22;18955;51.224;8.482;2023-03-16T03:18:37;2.20;72.10
32506;DHT22;18955;51.224;8.482;2023-03-16T03:21:04;2.10;72.00
32506;DHT22;18955;51.224;8.482;2023-03-16T03:23:30;2.10;72.10
32506;DHT22;18955;51.224;8.482;2023-03-16T03:25:57;2.10;72.10
32506;DHT22;18955;51.224;8.482;2023-03-16T03:28:24;2.10;72.20
32506;DHT22;18955;51.224;8.482;2023-03-16T03:30:51;2.10;72.20
32506;DHT22;18955;51.224;8.482;2023-03-16T03:33:17;2.10;72.20
32506;DHT22;18955;51.224;8.482;2023-03-16T03:35:44;2.00;72.20
32506;DHT22;18955;51.224;8.482;2023-03-16T03:38:10;2.00;72.20
32506;DHT22;18955;51.224;8.482;2023-03-16T03:40:37;2.00;72.20
32506;DHT22;18955;51.224;8.482;2023-03-16T03:43:04;2.00;72.20
32506;DHT22;18955;51.224;8.482;2023-03-16T03:45:33;2.00;72.20
32506;DHT22;18955;51.224;8.482;2023-03-16T03:48:00;2.00;72.30
32506;DHT22;18955;51.224;8.482;2023-03-16T03:50:26;2.00;72.30
32506;DHT22;18955;51.224;8.482;2023-03-16T03:53:17;2.00;72.20
32506;DHT22;18955;51.224;8.482;2023-03-16T03:56:02;1.90;72.20
32506;DHT22;18955;51.224;8.482;2023-03-16T03:58:29;1.90;72.20
32506;DHT22;18955;51.224;8.482;2023-03-16T04:00:55;1.90;72.30
32506;DHT22;18955;51.224;8.482;2023-03-16T04:03:21;1.90;72.30
32506;DHT22;18955;51.224;8.482;2023-03-16T04:05:48;2.00;72.40
32506;DHT22;18955;51.224;8.482;2023-03-16T04:08:14;1.90;72.30
32506;DHT22;18955;51.224;8.482;2023-03-16T04:10:41;1.90;72.40
32506;DHT22;18955;51.224;8.482;2023-03-16T04:13:07;1.90;72.30
32506;DHT22;18955;51.224;8.482;2023-03-16T04:15:34;1.90;72.30
32506;DHT22;18955;51.224;8.482;2023-03-16T04:18:11;1.90;72.40
32506;DHT22;18955;51.224;8.482;2023-03-16T04:20:38;1.90;72.40
32506;DHT22;18955;51.224;8.482;2023-03-16T04:23:06;1.80;72.30
32506;DHT22;18955;51.224;8.482;2023-03-16T04:25:34;1.90;72.40
32506;DHT22;18955;51.224;8.482;2023-03-16T04:28:04;1.80;72.30
32506;DHT22;18955;51.224;8.482;2023-03-16T04:30:34;1.80;72.40
32506;DHT22;18955;51.224;8.482;2023-03-16T04:33:16;1.80;72.40
32506;DHT22;18955;51.224;8.482;2023-03-16T04:35:43;1.80;72.50
32506;DHT22;18955;51.224;8.482;2023-03-16T04:38:12;1.80;72.50
32506;DHT22;18955;51.224;8.482;2023-03-16T04:40:49;1.80;72.40
32506;DHT22;18955;51.224;8.482;2023-03-16T04:43:18;1.80;72.40
32506;DHT22;18955;51.224;8.482;2023-03-16T04:45:46;1.80;72.50
32506;DHT22;18955;51.224;8.482;2023-03-16T04:48:13;1.70;72.40
32506;DHT22;18955;51.224;8.482;2023-03-16T04:50:39;1.80;72.60
32506;DHT22;18955;51.224;8.482;2023-03-16T04:53:06;1.80;72.50
32506;DHT22;18955;51.224;8.482;2023-03-16T04:55:32;1.80;72.50
32506;DHT22;18955;51.224;8.482;2023-03-16T04:57:59;1.80;72.40
32506;DHT22;18955;51.224;8.482;2023-03-16T05:00:30;1.70;72.40
32506;DHT22;18955;51.224;8.482;2023-03-16T05:03:08;1.70;72.40
32506;DHT22;18955;51.224;8.482;2023-03-16T05:05:38;1.70;72.50
32506;DHT22;18955;51.224;8.482;2023-03-16T05:08:05;1.70;72.50
32506;DHT22;18955;51.224;8.482;2023-03-16T05:10:34;1.70;72.50
32506;DHT22;18955;51.224;8.482;2023-03-16T05:13:01;1.70;72.50
32506;DHT22;18955;51.224;8.482;2023-03-16T05:15:28;1.70;72.50
32506;DHT22;18955;51.224;8.482;2023-03-16T05:17:59;1.70;72.60
32506;DHT22;18955;51.224;8.482;2023-03-16T05:20:26;1.70;72.50
32506;DHT22;18955;51.224;8.482;2023-03-16T05:22:57;1.70;72.60
32506;DHT22;18955;51.224;8.482;2023-03-16T05:25:30;1.70;72.60
32506;DHT22;18955;51.224;8.482;2023-03-16T05:28:01;1.70;72.60
32506;DHT22;18955;51.224;8.482;2023-03-16T05:30:53;1.70;72.60
32506;DHT22;18955;51.224;8.482;2023-03-16T05:33:24;1.70;72.60
32506;DHT22;18955;51.224;8.482;2023-03-16T05:35:57;1.70;72.70
32506;DHT22;18955;51.224;8.482;2023-03-16T05:38:24;1.70;72.70
32506;DHT22;18955;51.224;8.482;2023-03-16T05:40:53;1.60;72.60
32506;DHT22;18955;51.224;8.482;2023-03-16T05:43:35;1.60;72.60
32506;DHT22;18955;51.224;8.482;2023-03-16T05:46:02;1.30;72.40
32506;DHT22;18955;51.224;8.482;2023-03-16T05:48:29;1.60;72.60
32506;DHT22;18955;51.224;8.482;2023-03-16T05:50:57;1.60;72.60
32506;DHT22;18955;51.224;8.482;2023-03-16T05:53:28;1.60;72.60
32506;DHT22;18955;51.224;8.482;2023-03-16T05:56:01;1.60;72.60
32506;DHT22;18955;51.224;8.482;2023-03-16T05:58:30;1.60;72.60
32506;DHT22;18955;51.224;8.482;2023-03-16T06:00:59;1.70;72.60
32506;DHT22;18955;51.224;8.482;2023-03-16T06:03:30;1.60;72.60
32506;DHT22;18955;51.224;8.482;2023-03-16T06:05:58;1.60;72.50
32506;DHT22;18955;51.224;8.482;2023-03-16T06:08:32;1.60;72.60
32506;DHT22;18955;51.224;8.482;2023-03-16T06:11:11;1.60;72.60
32506;DHT22;18955;51.224;8.482;2023-03-16T06:13:38;1.60;72.50
32506;DHT22;18955;51.224;8.482;2023-03-16T06:16:05;1.60;72.50
32506;DHT22;18955;51.224;8.482;2023-03-16T06:18:34;1.60;72.50
32506;DHT22;18955;51.224;8.482;2023-03-16T06:21:00;1.60;73.00
32506;DHT22;18955;51.224;8.482;2023-03-16T06:23:27;1.60;72.50
32506;DHT22;18955;51.224;8.482;2023-03-16T06:25:55;1.60;72.50
32506;DHT22;18955;51.224;8.482;2023-03-16T06:28:25;1.60;72.50
32506;DHT22;18955;51.224;8.482;2023-03-16T06:30:52;1.60;72.60
32506;DHT22;18955;51.224;8.482;2023-03-16T06:33:18;1.60;72.40
32506;DHT22;18955;51.224;8.482;2023-03-16T06:35:45;1.60;72.40
32506;DHT22;18955;51.224;8.482;2023-03-16T06:38:20;1.60;72.40
32506;DHT22;18955;51.224;8.482;2023-03-16T06:41:00;1.60;72.40
32506;DHT22;18955;51.224;8.482;2023-03-16T06:43:27;1.70;72.40
32506;DHT22;18955;51.224;8.482;2023-03-16T06:45:54;1.60;72.40
32506;DHT22;18955;51.224;8.482;2023-03-16T06:48:21;1.60;72.40
32506;DHT22;18955;51.224;8.482;2023-03-16T06:50:48;1.70;72.50
32506;DHT22;18955;51.224;8.482;2023-03-16T06:53:20;1.60;72.40
32506;DHT22;18955;51.224;8.482;2023-03-16T06:55:47;1.60;72.50
32506;DHT22;18955;51.224;8.482;2023-03-16T06:58:14;1.60;72.40
32506;DHT22;18955;51.224;8.482;2023-03-16T07:00:40;1.60;72.50
32506;DHT22;18955;51.224;8.482;2023-03-16T07:03:07;1.70;72.60
32506;DHT22;18955;51.224;8.482;2023-03-16T07:05:35;1.70;72.60
32506;DHT22;18955;51.224;8.482;2023-03-16T07:08:03;1.70;72.50
32506;DHT22;18955;51.224;8.482;2023-03-16T07:10:30;1.70;72.50
32506;DHT22;18955;51.224;8.482;2023-03-16T07:12:57;1.70;72.50
32506;DHT22;18955;51.224;8.482;2023-03-16T07:15:23;1.70;72.60
32506;DHT22;18955;51.224;8.482;2023-03-16T07:17:53;1.70;72.50
32506;DHT22;18955;51.224;8.482;2023-03-16T07:20:19;1.70;72.60
32506;DHT22;18955;51.224;8.482;2023-03-16T07:22:46;1.70;72.50
32506;DHT22;18955;51.224;8.482;2023-03-16T07:25:13;1.70;72.60
32506;DHT22;18955;51.224;8.482;2023-03-16T07:27:44;1.80;72.60
32506;DHT22;18955;51.224;8.482;2023-03-16T07:30:17;1.80;72.60
32506;DHT22;18955;51.224;8.482;2023-03-16T07:32:45;1.80;72.70
32506;DHT22;18955;51.224;8.482;2023-03-16T07:35:12;1.80;72.70
32506;DHT22;18955;51.224;8.482;2023-03-16T07:37:38;1.80;72.60
32506;DHT22;18955;51.224;8.482;2023-03-16T07:40:06;1.90;72.60
32506;DHT22;18955;51.224;8.482;2023-03-16T07:42:35;1.90;72.60
32506;DHT22;18955;51.224;8.482;2023-03-16T07:45:15;1.90;72.60
32506;DHT22;18955;51.224;8.482;2023-03-16T07:47:43;1.90;72.60
32506;DHT22;18955;51.224;8.482;2023-03-16T07:50:24;2.00;72.50
32506;DHT22;18955;51.224;8.482;2023-03-16T07:52:52;2.00;72.40
32506;DHT22;18955;51.224;8.482;2023-03-16T07:55:19;2.00;72.30
32506;DHT22;18955;51.224;8.482;2023-03-16T07:57:48;2.10;72.30
32506;DHT22;18955;51.224;8.482;2023-03-16T08:00:19;2.10;72.30
32506;DHT22;18955;51.224;8.482;2023-03-16T08:02:49;2.10;72.10
32506;DHT22;18955;51.224;8.482;2023-03-16T08:05:17;2.20;72.20
32506;DHT22;18955;51.224;8.482;2023-03-16T08:07:48;2.20;72.20
32506;DHT22;18955;51.224;8.482;2023-03-16T08:10:22;2.30;72.20
32506;DHT22;18955;51.224;8.482;2023-03-16T08:12:55;2.30;72.20
32506;DHT22;18955;51.224;8.482;2023-03-16T08:15:22;2.30;72.20
32506;DHT22;18955;51.224;8.482;2023-03-16T08:17:51;2.30;72.30
32506;DHT22;18955;51.224;8.482;2023-03-16T08:20:23;2.30;72.30
32506;DHT22;18955;51.224;8.482;2023-03-16T08:22:49;2.40;72.40
32506;DHT22;18955;51.224;8.482;2023-03-16T08:25:19;2.40;72.20
32506;DHT22;18955;51.224;8.482;2023-03-16T08:27:55;2.40;72.20
32506;DHT22;18955;51.224;8.482;2023-03-16T08:30:23;2.40;72.30
32506;DHT22;18955;51.224;8.482;2023-03-16T08:33:08;2.50;72.40
32506;DHT22;18955;51.224;8.482;2023-03-16T08:35:35;2.50;72.40
32506;DHT22;18955;51.224;8.482;2023-03-16T08:38:01;2.40;72.40
32506;DHT22;18955;51.224;8.482;2023-03-16T08:40:28;2.50;72.50
32506;DHT22;18955;51.224;8.482;2023-03-16T08:42:55;2.50;72.60
32506;DHT22;18955;51.224;8.482;2023-03-16T08:45:21;2.50;72.50
32506;DHT22;18955;51.224;8.482;2023-03-16T08:47:49;2.50;72.50
32506;DHT22;18955;51.224;8.482;2023-03-16T08:50:16;2.60;72.70
32506;DHT22;18955;51.224;8.482;2023-03-16T08:52:42;2.60;72.70
32506;DHT22;18955;51.224;8.482;2023-03-16T08:55:09;2.60;72.70
32506;DHT22;18955;51.224;8.482;2023-03-16T08:57:36;2.60;72.70
32506;DHT22;18955;51.224;8.482;2023-03-16T09:00:04;2.60;72.80
32506;DHT22;18955;51.224;8.482;2023-03-16T09:02:40;2.60;72.80
32506;DHT22;18955;51.224;8.482;2023-03-16T09:05:12;2.60;72.90
32506;DHT22;18955;51.224;8.482;2023-03-16T09:07:39;2.60;72.90
32506;DHT22;18955;51.224;8.482;2023-03-16T09:10:06;2.60;72.90
32506;DHT22;18955;51.224;8.482;2023-03-16T09:12:37;2.60;73.00
32506;DHT22;18955;51.224;8.482;2023-03-16T09:15:04;2.60;73.00
32506;DHT22;18955;51.224;8.482;2023-03-16T09:17:30;2.60;73.00
32506;DHT22;18955;51.224;8.482;2023-03-16T09:19:56;2.60;73.00
32506;DHT22;18955;51.224;8.482;2023-03-16T09:22:23;2.60;73.00
32506;DHT22;18955;51.224;8.482;2023-03-16T09:24:49;2.70;73.00
32506;DHT22;18955;51.224;8.482;2023-03-16T09:27:16;2.70;73.00
32506;DHT22;18955;51.224;8.482;2023-03-16T09:29:43;2.70;73.00
32506;DHT22;18955;51.224;8.482;2023-03-16T09:32:10;2.70;73.00
32506;DHT22;18955;51.224;8.482;2023-03-16T09:34:37;2.70;73.00
32506;DHT22;18955;51.224;8.482;2023-03-16T09:37:04;2.70;73.00
32506;DHT22;18955;51.224;8.482;2023-03-16T09:39:30;2.70;73.00
32506;DHT22;18955;51.224;8.482;2023-03-16T09:42:13;2.70;73.00
32506;DHT22;18955;51.224;8.482;2023-03-16T09:47:12;2.80;73.00
32506;DHT22;18955;51.224;8.482;2023-03-16T09:49:45;2.80;72.90
32506;DHT22;18955;51.224;8.482;2023-03-16T09:57:31;2.80;72.90
32506;DHT22;18955;51.224;8.482;2023-03-16T10:02:56;2.90;73.00
32506;DHT22;18955;51.224;8.482;2023-03-16T10:05:25;2.90;73.10
32506;DHT22;18955;51.224;8.482;2023-03-16T10:08:10;2.90;73.10
32506;DHT22;18955;51.224;8.482;2023-03-16T10:19:10;2.90;73.00
32506;DHT22;18955;51.224;8.482;2023-03-16T10:21:40;2.90;73.10
32506;DHT22;18955;51.224;8.482;2023-03-16T10:24:20;3.00;73.10
32506;DHT22;18955;51.224;8.482;2023-03-16T10:26:57;3.00;73.10
32506;DHT22;18955;51.224;8.482;2023-03-16T10:29:31;3.00;73.10
32506;DHT22;18955;51.224;8.482;2023-03-16T10:32:04;3.00;73.10
32506;DHT22;18955;51.224;8.482;2023-03-16T10:34:32;3.00;73.10
32506;DHT22;18955;51.224;8.482;2023-03-16T10:37:01;3.10;73.20
32506;DHT22;18955;51.224;8.482;2023-03-16T10:39:35;3.00;73.20
32506;DHT22;18955;51.224;8.482;2023-03-16T10:42:01;3.00;73.20
32506;DHT22;18955;51.224;8.482;2023-03-16T10:44:28;3.10;73.20
32506;DHT22;18955;51.224;8.482;2023-03-16T10:47:03;3.10;73.20
32506;DHT22;18955;51.224;8.482;2023-03-16T10:49:40;3.10;73.20
32506;DHT22;18955;51.224;8.482;2023-03-16T10:54:39;3.10;73.20
32506;DHT22;18955;51.224;8.482;2023-03-16T10:57:18;3.10;73.10
32506;DHT22;18955;51.224;8.482;2023-03-16T10:59:51;3.10;73.00
32506;DHT22;18955;51.224;8.482;2023-03-16T11:02:20;3.10;73.00
32506;DHT22;18955;51.224;8.482;2023-03-16T11:04:49;3.20;73.10
32506;DHT22;18955;51.224;8.482;2023-03-16T11:07:20;3.20;73.10
32506;DHT22;18955;51.224;8.482;2023-03-16T11:09:53;3.20;73.00
32506;DHT22;18955;51.224;8.482;2023-03-16T11:12:28;3.20;73.00
32506;DHT22;18955;51.224;8.482;2023-03-16T11:15:12;3.20;73.10
32506;DHT22;18955;51.224;8.482;2023-03-16T11:17:44;3.20;73.20
32506;DHT22;18955;51.224;8.482;2023-03-16T11:20:17;3.30;73.30
32506;DHT22;18955;51.224;8.482;2023-03-16T11:22:46;3.30;73.20
32506;DHT22;18955;51.224;8.482;2023-03-16T11:25:14;3.30;73.20
32506;DHT22;18955;51.224;8.482;2023-03-16T11:27:44;3.30;73.20
32506;DHT22;18955;51.224;8.482;2023-03-16T11:30:28;3.30;73.30
32506;DHT22;18955;51.224;8.482;2023-03-16T11:32:56;3.30;73.30
32506;DHT22;18955;51.224;8.482;2023-03-16T11:35:38;3.30;73.30
32506;DHT22;18955;51.224;8.482;2023-03-16T11:40:59;3.40;73.30
32506;DHT22;18955;51.224;8.482;2023-03-16T11:43:47;3.40;73.30
32506;DHT22;18955;51.224;8.482;2023-03-16T11:46:35;3.40;73.40
32506;DHT22;18955;51.224;8.482;2023-03-16T12:04:01;3.60;73.20
32506;DHT22;18955;51.224;8.482;2023-03-16T12:14:52;3.70;73.20
32506;DHT22;18955;51.224;8.482;2023-03-16T12:17:25;3.70;73.30
32506;DHT22;18955;51.224;8.482;2023-03-16T12:22:38;3.70;73.20
32506;DHT22;18955;51.224;8.482;2023-03-16T12:25:22;3.70;73.20
32506;DHT22;18955;51.224;8.482;2023-03-16T12:27:52;3.70;73.20
32506;DHT22;18955;51.224;8.482;2023-03-16T12:33:26;3.80;73.10
32506;DHT22;18955;51.224;8.482;2023-03-16T12:36:06;3.80;73.20
32506;DHT22;18955;51.224;8.482;2023-03-16T12:44:14;3.80;73.10
32506;DHT22;18955;51.224;8.482;2023-03-16T12:49:25;3.80;73.10
32506;DHT22;18955;51.224;8.482;2023-03-16T12:52:13;3.80;73.00
32506;DHT22;18955;51.224;8.482;2023-03-16T12:55:07;3.90;73.20
32506;DHT22;18955;51.224;8.482;2023-03-16T12:57:33;3.90;73.10
32506;DHT22;18955;51.224;8.482;2023-03-16T13:00:00;3.90;73.00
32506;DHT22;18955;51.224;8.482;2023-03-16T13:02:35;3.90;73.00
32506;DHT22;18955;51.224;8.482;2023-03-16T13:05:10;3.90;73.10
32506;DHT22;18955;51.224;8.482;2023-03-16T13:07:46;3.90;73.00
32506;DHT22;18955;51.224;8.482;2023-03-16T13:10:15;3.90;73.00
32506;DHT22;18955;51.224;8.482;2023-03-16T13:12:43;4.00;73.00
32506;DHT22;18955;51.224;8.482;2023-03-16T13:18:01;4.00;73.00
32506;DHT22;18955;51.224;8.482;2023-03-16T13:20:31;4.10;73.00
32506;DHT22;18955;51.224;8.482;2023-03-16T13:26:00;4.10;73.00
32506;DHT22;18955;51.224;8.482;2023-03-16T13:28:39;4.20;73.00
32506;DHT22;18955;51.224;8.482;2023-03-16T13:33:52;4.20;72.80
32506;DHT22;18955;51.224;8.482;2023-03-16T13:36:21;4.20;72.70
32506;DHT22;18955;51.224;8.482;2023-03-16T13:39:17;4.30;72.70
32506;DHT22;18955;51.224;8.482;2023-03-16T13:44:25;4.40;72.70
32506;DHT22;18955;51.224;8.482;2023-03-16T13:46:52;4.40;72.70
32506;DHT22;18955;51.224;8.482;2023-03-16T13:49:19;4.50;72.60
32506;DHT22;18955;51.224;8.482;2023-03-16T13:51:46;4.50;72.60
32506;DHT22;18955;51.224;8.482;2023-03-16T13:54:28;4.50;72.50
32506;DHT22;18955;51.224;8.482;2023-03-16T13:57:03;4.50;72.50
32506;DHT22;18955;51.224;8.482;2023-03-16T13:59:32;4.50;72.50
32506;DHT22;18955;51.224;8.482;2023-03-16T14:01:59;4.50;72.50
32506;DHT22;18955;51.224;8.482;2023-03-16T14:04:29;4.50;72.60
32506;DHT22;18955;51.224;8.482;2023-03-16T14:06:58;4.60;72.50
32506;DHT22;18955;51.224;8.482;2023-03-16T14:09:34;4.60;72.50
32506;DHT22;18955;51.224;8.482;2023-03-16T14:12:01;4.60;72.50
32506;DHT22;18955;51.224;8.482;2023-03-16T14:14:37;4.60;72.50
32506;DHT22;18955;51.224;8.482;2023-03-16T14:17:11;4.60;72.60
32506;DHT22;18955;51.224;8.482;2023-03-16T14:19:45;4.60;72.60
32506;DHT22;18955;51.224;8.482;2023-03-16T14:22:18;4.60;72.60
32506;DHT22;18955;51.224;8.482;2023-03-16T14:24:54;4.30;72.50
32506;DHT22;18955;51.224;8.482;2023-03-16T14:27:30;4.60;72.70
32506;DHT22;18955;51.224;8.482;2023-03-16T14:30:13;4.60;72.70
32506;DHT22;18955;51.224;8.482;2023-03-16T14:32:40;4.60;72.80
32506;DHT22;18955;51.224;8.482;2023-03-16T14:37:38;4.60;72.90
32506;DHT22;18955;51.224;8.482;2023-03-16T14:40:19;4.70;73.00
32506;DHT22;18955;51.224;8.482;2023-03-16T14:42:46;4.70;72.90
32506;DHT22;18955;51.224;8.482;2023-03-16T14:45:14;4.70;72.90
32506;DHT22;18955;51.224;8.482;2023-03-16T14:47:43;4.90;72.80
32506;DHT22;18955;51.224;8.482;2023-03-16T14:50:16;5.00;72.40
32506;DHT22;18955;51.224;8.482;2023-03-16T14:52:44;5.10;72.20
32506;DHT22;18955;51.224;8.482;2023-03-16T14:55:14;5.10;72.00
32506;DHT22;18955;51.224;8.482;2023-03-16T14:57:41;5.20;72.10
32506;DHT22;18955;51.224;8.482;2023-03-16T15:00:10;5.20;72.00
32506;DHT22;18955;51.224;8.482;2023-03-16T15:02:39;5.20;72.00
32506;DHT22;18955;51.224;8.482;2023-03-16T15:05:06;5.20;72.00
32506;DHT22;18955;51.224;8.482;2023-03-16T15:07:39;5.20;72.00
32506;DHT22;18955;51.224;8.482;2023-03-16T15:12:35;5.20;72.10
32506;DHT22;18955;51.224;8.482;2023-03-16T15:15:15;5.20;72.20
32506;DHT22;18955;51.224;8.482;2023-03-16T15:17:44;5.20;72.40
32506;DHT22;18955;51.224;8.482;2023-03-16T15:20:16;5.20;72.40
32506;DHT22;18955;51.224;8.482;2023-03-16T15:22:43;5.20;72.50
32506;DHT22;18955;51.224;8.482;2023-03-16T15:25:17;5.20;72.60
32506;DHT22;18955;51.224;8.482;2023-03-16T15:27:45;5.20;72.70
32506;DHT22;18955;51.224;8.482;2023-03-16T15:30:18;5.20;72.70
32506;DHT22;18955;51.224;8.482;2023-03-16T15:32:45;5.20;72.80
32506;DHT22;18955;51.224;8.482;2023-03-16T15:35:11;5.20;72.90
32506;DHT22;18955;51.224;8.482;2023-03-16T15:37:38;5.20;73.00
32506;DHT22;18955;51.224;8.482;2023-03-16T15:40:31;5.20;73.00
32506;DHT22;18955;51.224;8.482;2023-03-16T15:42:57;5.20;73.10
32506;DHT22;18955;51.224;8.482;2023-03-16T15:45:24;5.20;73.20
32506;DHT22;18955;51.224;8.482;2023-03-16T15:47:51;5.20;73.30
32506;DHT22;18955;51.224;8.482;2023-03-16T15:50:20;5.20;73.30
32506;DHT22;18955;51.224;8.482;2023-03-16T15:52:57;5.20;73.40
32506;DHT22;18955;51.224;8.482;2023-03-16T15:55:34;5.20;73.40
32506;DHT22;18955;51.224;8.482;2023-03-16T15:58:01;5.20;73.60
32506;DHT22;18955;51.224;8.482;2023-03-16T16:00:32;5.20;73.50
32506;DHT22;18955;51.224;8.482;2023-03-16T16:03:01;5.20;73.50
32506;DHT22;18955;51.224;8.482;2023-03-16T16:05:28;5.30;73.50
32506;DHT22;18955;51.224;8.482;2023-03-16T16:07:56;5.30;73.60
32506;DHT22;18955;51.224;8.482;2023-03-16T16:10:25;5.30;73.60
32506;DHT22;18955;51.224;8.482;2023-03-16T16:12:53;5.20;73.70
32506;DHT22;18955;51.224;8.482;2023-03-16T16:15:28;5.20;73.80
32506;DHT22;18955;51.224;8.482;2023-03-16T16:17:57;5.20;73.70
32506;DHT22;18955;51.224;8.482;2023-03-16T16:20:28;5.20;73.80
32506;DHT22;18955;51.224;8.482;2023-03-16T16:22:56;5.20;73.80
32506;DHT22;18955;51.224;8.482;2023-03-16T16:25:33;5.20;73.80
32506;DHT22;18955;51.224;8.482;2023-03-16T16:28:01;5.20;73.80
32506;DHT22;18955;51.224;8.482;2023-03-16T16:30:29;5.20;73.90
32506;DHT22;18955;51.224;8.482;2023-03-16T16:32:57;5.20;73.90
32506;DHT22;18955;51.224;8.482;2023-03-16T16:35:24;5.20;73.90
32506;DHT22;18955;51.224;8.482;2023-03-16T16:37:52;5.20;74.10
32506;DHT22;18955;51.224;8.482;2023-03-16T16:40:22;5.30;74.10
32506;DHT22;18955;51.224;8.482;2023-03-16T16:42:50;5.20;74.10
32506;DHT22;18955;51.224;8.482;2023-03-16T16:45:20;5.20;74.10
32506;DHT22;18955;51.224;8.482;2023-03-16T16:47:51;5.30;74.20
32506;DHT22;18955;51.224;8.482;2023-03-16T16:50:19;5.20;74.30
32506;DHT22;18955;51.224;8.482;2023-03-16T16:52:47;5.20;74.30
32506;DHT22;18955;51.224;8.482;2023-03-16T16:55:15;5.20;74.30
32506;DHT22;18955;51.224;8.482;2023-03-16T16:57:42;5.20;74.30
32506;DHT22;18955;51.224;8.482;2023-03-16T17:02:48;5.20;74.10
32506;DHT22;18955;51.224;8.482;2023-03-16T17:05:24;5.30;74.20
32506;DHT22;18955;51.224;8.482;2023-03-16T17:07:51;5.30;74.20
32506;DHT22;18955;51.224;8.482;2023-03-16T17:10:18;5.30;74.30
32506;DHT22;18955;51.224;8.482;2023-03-16T17:12:45;5.30;74.30
32506;DHT22;18955;51.224;8.482;2023-03-16T17:17:44;5.30;74.40
32506;DHT22;18955;51.224;8.482;2023-03-16T17:20:19;5.20;74.40
32506;DHT22;18955;51.224;8.482;2023-03-16T17:22:46;5.30;74.40
32506;DHT22;18955;51.224;8.482;2023-03-16T17:25:14;5.20;74.50
32506;DHT22;18955;51.224;8.482;2023-03-16T17:27:42;5.20;74.50
32506;DHT22;18955;51.224;8.482;2023-03-16T17:30:28;5.20;74.50
32506;DHT22;18955;51.224;8.482;2023-03-16T17:32:59;5.20;74.60
32506;DHT22;18955;51.224;8.482;2023-03-16T17:35:28;5.20;74.60